sensor_id;sensor_type;location;lat;lon;timestamp;temperature;humidity
67275;DHT22;55463;52.324;5.122;2023-05-07T00:01:06;14.69;96.95
67275;DHT22;55463;52.324;5.122;2023-05-07T00:03:32;14.62;98.36
67275;DHT22;55463;52.324;5.122;2023-05-07T00:05:58;14.58;98.56
67275;DHT22;55463;52.324;5.122;2023-05-07T00:08:23;14.58;97.58
67275;DHT22;55463;52.324;5.122;2023-05-07T00:10:48;14.53;98.53
67275;DHT22;55463;52.324;5.122;2023-05-07T00:13:14;14.53;98.40
67275;DHT22;55463;52.324;5.122;2023-05-07T00:15:40;14.52;97.52
67275;DHT22;55463;52.324;5.122;2023-05-07T00:18:05;14.48;97.61
67275;DHT22;55463;52.324;5.122;2023-05-07T00:20:31;14.46;97.70
67275;DHT22;55463;52.324;5.122;2023-05-07T00:22:56;14.43;96.81
67275;DHT22;55463;52.324;5.122;2023-05-07T00:25:22;14.41;97.69
67275;DHT22;55463;52.324;5.122;2023-05-07T00:27:47;14.41;97.53
67275;DHT22;55463;52.324;5.122;2023-05-07T00:30:13;14.35;97.78
67275;DHT22;55463;52.324;5.122;2023-05-07T00:32:38;14.33;98.17
67275;DHT22;55463;52.324;5.122;2023-05-07T00:35:05;14.35;97.47
67275;DHT22;55463;52.324;5.122;2023-05-07T00:37:30;14.29;97.80
67275;DHT22;55463;52.324;5.122;2023-05-07T00:39:56;14.29;98.15
67275;DHT22;55463;52.324;5.122;2023-05-07T00:42:22;14.28;96.66
67275;DHT22;55463;52.324;5.122;2023-05-07T00:44:47;14.25;98.28
67275;DHT22;55463;52.324;5.122;2023-05-07T00:47:13;14.24;98.74
67275;DHT22;55463;52.324;5.122;2023-05-07T00:49:42;14.21;98.13
67275;DHT22;55463;52.324;5.122;2023-05-07T00:52:09;14.18;98.33
67275;DHT22;55463;52.324;5.122;2023-05-07T00:54:36;14.18;97.53
67275;DHT22;55463;52.324;5.122;2023-05-07T00:57:02;14.15;97.45
67275;DHT22;55463;52.324;5.122;2023-05-07T00:59:29;14.14;98.39
67275;DHT22;55463;52.324;5.122;2023-05-07T01:01:55;14.11;97.58
67275;DHT22;55463;52.324;5.122;2023-05-07T01:04:20;14.10;97.76
67275;DHT22;55463;52.324;5.122;2023-05-07T01:06:46;14.08;97.62
67275;DHT22;55463;52.324;5.122;2023-05-07T01:09:12;14.08;97.58
67275;DHT22;55463;52.324;5.122;2023-05-07T01:11:38;14.07;96.99
67275;DHT22;55463;52.324;5.122;2023-05-07T01:14:05;14.07;96.90
67275;DHT22;55463;52.324;5.122;2023-05-07T01:16:30;14.07;97.29
67275;DHT22;55463;52.324;5.122;2023-05-07T01:18:56;14.07;97.32
67275;DHT22;55463;52.324;5.122;2023-05-07T01:21:25;14.07;98.04
67275;DHT22;55463;52.324;5.122;2023-05-07T01:23:52;14.08;97.72
67275;DHT22;55463;52.324;5.122;2023-05-07T01:26:17;14.08;97.48
67275;DHT22;55463;52.324;5.122;2023-05-07T01:28:45;14.10;97.56
67275;DHT22;55463;52.324;5.122;2023-05-07T01:31:12;14.07;98.20
67275;DHT22;55463;52.324;5.122;2023-05-07T01:33:40;14.10;97.70
67275;DHT22;55463;52.324;5.122;2023-05-07T01:36:06;14.10;97.68
67275;DHT22;55463;52.324;5.122;2023-05-07T01:38:34;14.11;97.52
67275;DHT22;55463;52.324;5.122;2023-05-07T01:41:01;14.11;97.46
67275;DHT22;55463;52.324;5.122;2023-05-07T01:43:26;14.14;97.78
67275;DHT22;55463;52.324;5.122;2023-05-07T01:45:52;14.11;98.41
67275;DHT22;55463;52.324;5.122;2023-05-07T01:48:18;14.11;98.02
67275;DHT22;55463;52.324;5.122;2023-05-07T01:50:44;14.14;97.63
67275;DHT22;55463;52.324;5.122;2023-05-07T01:53:09;14.13;97.18
67275;DHT22;55463;52.324;5.122;2023-05-07T01:55:35;14.13;97.51
67275;DHT22;55463;52.324;5.122;2023-05-07T01:58:02;14.13;97.24
67275;DHT22;55463;52.324;5.122;2023-05-07T02:00:27;14.11;96.64
67275;DHT22;55463;52.324;5.122;2023-05-07T02:02:54;14.11;96.96
67275;DHT22;55463;52.324;5.122;2023-05-07T02:05:19;14.08;96.90
67275;DHT22;55463;52.324;5.122;2023-05-07T02:07:45;14.05;97.32
67275;DHT22;55463;52.324;5.122;2023-05-07T02:10:10;14.03;98.06
67275;DHT22;55463;52.324;5.122;2023-05-07T02:12:35;14.01;97.31
67275;DHT22;55463;52.324;5.122;2023-05-07T02:15:01;14.00;97.64
67275;DHT22;55463;52.324;5.122;2023-05-07T02:17:27;14.00;98.05
67275;DHT22;55463;52.324;5.122;2023-05-07T02:19:52;13.98;98.63
67275;DHT22;55463;52.324;5.122;2023-05-07T02:22:18;13.98;98.27
67275;DHT22;55463;52.324;5.122;2023-05-07T02:24:43;13.97;97.52
67275;DHT22;55463;52.324;5.122;2023-05-07T02:27:09;13.97;97.34
67275;DHT22;55463;52.324;5.122;2023-05-07T02:29:35;13.97;98.13
67275;DHT22;55463;52.324;5.122;2023-05-07T02:32:00;13.96;97.51
67275;DHT22;55463;52.324;5.122;2023-05-07T02:34:26;13.97;97.20
67275;DHT22;55463;52.324;5.122;2023-05-07T02:36:52;13.98;97.25
67275;DHT22;55463;52.324;5.122;2023-05-07T02:39:17;13.96;97.04
67275;DHT22;55463;52.324;5.122;2023-05-07T02:41:43;13.98;97.32
67275;DHT22;55463;52.324;5.122;2023-05-07T02:44:09;13.98;97.86
67275;DHT22;55463;52.324;5.122;2023-05-07T02:46:34;13.98;98.55
67275;DHT22;55463;52.324;5.122;2023-05-07T02:49:00;13.97;98.23
67275;DHT22;55463;52.324;5.122;2023-05-07T02:51:25;13.97;97.54
67275;DHT22;55463;52.324;5.122;2023-05-07T02:53:52;13.97;97.38
67275;DHT22;55463;52.324;5.122;2023-05-07T02:56:17;13.98;98.13
67275;DHT22;55463;52.324;5.122;2023-05-07T02:58:42;13.96;97.50
67275;DHT22;55463;52.324;5.122;2023-05-07T03:01:08;14.01;97.36
67275;DHT22;55463;52.324;5.122;2023-05-07T03:03:39;13.98;97.80
67275;DHT22;55463;52.324;5.122;2023-05-07T03:06:05;13.98;97.68
67275;DHT22;55463;52.324;5.122;2023-05-07T03:08:31;14.01;97.62
67275;DHT22;55463;52.324;5.122;2023-05-07T03:10:57;14.01;98.19
67275;DHT22;55463;52.324;5.122;2023-05-07T03:13:22;14.03;97.70
67275;DHT22;55463;52.324;5.122;2023-05-07T03:15:48;14.01;97.60
67275;DHT22;55463;52.324;5.122;2023-05-07T03:18:13;14.03;98.20
67275;DHT22;55463;52.324;5.122;2023-05-07T03:20:39;14.05;97.68
67275;DHT22;55463;52.324;5.122;2023-05-07T03:23:05;14.03;97.60
67275;DHT22;55463;52.324;5.122;2023-05-07T03:25:31;14.05;98.06
67275;DHT22;55463;52.324;5.122;2023-05-07T03:27:56;14.04;98.61
67275;DHT22;55463;52.324;5.122;2023-05-07T03:30:22;14.03;97.91
67275;DHT22;55463;52.324;5.122;2023-05-07T03:32:47;14.05;98.27
67275;DHT22;55463;52.324;5.122;2023-05-07T03:35:13;14.04;98.02
67275;DHT22;55463;52.324;5.122;2023-05-07T03:37:39;14.05;97.55
67275;DHT22;55463;52.324;5.122;2023-05-07T03:40:05;14.05;98.50
67275;DHT22;55463;52.324;5.122;2023-05-07T03:42:31;14.03;98.11
67275;DHT22;55463;52.324;5.122;2023-05-07T03:44:56;14.05;97.74
67275;DHT22;55463;52.324;5.122;2023-05-07T03:47:22;14.03;98.03
67275;DHT22;55463;52.324;5.122;2023-05-07T03:49:47;14.08;98.34
67275;DHT22;55463;52.324;5.122;2023-05-07T03:52:14;14.05;98.35
67275;DHT22;55463;52.324;5.122;2023-05-07T03:54:39;14.08;97.99
67275;DHT22;55463;52.324;5.122;2023-05-07T03:57:05;14.10;97.72
67275;DHT22;55463;52.324;5.122;2023-05-07T03:59:30;14.08;97.51
67275;DHT22;55463;52.324;5.122;2023-05-07T04:01:55;14.08;97.77
67275;DHT22;55463;52.324;5.122;2023-05-07T04:04:21;14.11;98.28
67275;DHT22;55463;52.324;5.122;2023-05-07T04:06:46;14.10;98.17
67275;DHT22;55463;52.324;5.122;2023-05-07T04:09:12;14.13;97.91
67275;DHT22;55463;52.324;5.122;2023-05-07T04:11:37;14.14;98.62
67275;DHT22;55463;52.324;5.122;2023-05-07T04:14:05;14.14;97.90
67275;DHT22;55463;52.324;5.122;2023-05-07T04:16:30;14.14;98.17
67275;DHT22;55463;52.324;5.122;2023-05-07T04:18:56;14.14;99.57
67275;DHT22;55463;52.324;5.122;2023-05-07T04:21:21;14.15;99.12
67275;DHT22;55463;52.324;5.122;2023-05-07T04:23:47;14.17;98.60
67275;DHT22;55463;52.324;5.122;2023-05-07T04:26:13;14.18;98.10
67275;DHT22;55463;52.324;5.122;2023-05-07T04:28:39;14.18;98.40
67275;DHT22;55463;52.324;5.122;2023-05-07T04:31:05;14.18;98.64
67275;DHT22;55463;52.324;5.122;2023-05-07T04:33:31;14.21;98.49
67275;DHT22;55463;52.324;5.122;2023-05-07T04:35:57;14.21;98.77
67275;DHT22;55463;52.324;5.122;2023-05-07T04:38:22;14.21;98.57
67275;DHT22;55463;52.324;5.122;2023-05-07T04:40:49;14.21;98.90
67275;DHT22;55463;52.324;5.122;2023-05-07T04:43:14;14.24;98.50
67275;DHT22;55463;52.324;5.122;2023-05-07T04:45:41;14.25;98.53
67275;DHT22;55463;52.324;5.122;2023-05-07T04:48:08;14.24;98.12
67275;DHT22;55463;52.324;5.122;2023-05-07T04:50:34;14.25;98.57
67275;DHT22;55463;52.324;5.122;2023-05-07T04:52:59;14.28;98.99
67275;DHT22;55463;52.324;5.122;2023-05-07T04:55:25;14.31;98.89
67275;DHT22;55463;52.324;5.122;2023-05-07T04:57:51;14.31;98.89
67275;DHT22;55463;52.324;5.122;2023-05-07T05:00:17;14.29;99.21
67275;DHT22;55463;52.324;5.122;2023-05-07T05:02:44;14.33;98.56
67275;DHT22;55463;52.324;5.122;2023-05-07T05:05:10;14.33;98.25
67275;DHT22;55463;52.324;5.122;2023-05-07T05:07:35;14.35;99.17
67275;DHT22;55463;52.324;5.122;2023-05-07T05:10:01;14.39;99.12
67275;DHT22;55463;52.324;5.122;2023-05-07T05:12:29;14.41;99.35
67275;DHT22;55463;52.324;5.122;2023-05-07T05:14:54;14.45;99.20
67275;DHT22;55463;52.324;5.122;2023-05-07T05:17:19;14.48;98.82
67275;DHT22;55463;52.324;5.122;2023-05-07T05:19:45;14.52;98.53
67275;DHT22;55463;52.324;5.122;2023-05-07T05:22:10;14.49;98.81
67275;DHT22;55463;52.324;5.122;2023-05-07T05:24:36;14.56;98.17
67275;DHT22;55463;52.324;5.122;2023-05-07T05:27:01;14.59;98.94
67275;DHT22;55463;52.324;5.122;2023-05-07T05:29:27;14.65;98.30
67275;DHT22;55463;52.324;5.122;2023-05-07T05:31:52;14.62;99.06
67275;DHT22;55463;52.324;5.122;2023-05-07T05:34:18;14.66;98.06
67275;DHT22;55463;52.324;5.122;2023-05-07T05:36:44;14.66;98.21
67275;DHT22;55463;52.324;5.122;2023-05-07T05:39:10;14.69;98.27
67275;DHT22;55463;52.324;5.122;2023-05-07T05:41:35;14.67;99.01
67275;DHT22;55463;52.324;5.122;2023-05-07T05:44:01;14.70;98.30
67275;DHT22;55463;52.324;5.122;2023-05-07T05:46:26;14.70;98.62
67275;DHT22;55463;52.324;5.122;2023-05-07T05:48:51;14.69;98.29
67275;DHT22;55463;52.324;5.122;2023-05-07T05:51:17;14.72;98.39
67275;DHT22;55463;52.324;5.122;2023-05-07T05:53:42;14.77;98.03
67275;DHT22;55463;52.324;5.122;2023-05-07T05:56:08;14.76;98.12
67275;DHT22;55463;52.324;5.122;2023-05-07T05:58:35;14.80;98.11
67275;DHT22;55463;52.324;5.122;2023-05-07T06:01:01;14.83;98.01
67275;DHT22;55463;52.324;5.122;2023-05-07T06:03:27;14.83;97.89
67275;DHT22;55463;52.324;5.122;2023-05-07T06:05:53;14.83;98.40
67275;DHT22;55463;52.324;5.122;2023-05-07T06:08:18;14.87;98.06
67275;DHT22;55463;52.324;5.122;2023-05-07T06:10:44;14.88;98.70
67275;DHT22;55463;52.324;5.122;2023-05-07T06:13:10;14.93;98.08
67275;DHT22;55463;52.324;5.122;2023-05-07T06:15:35;14.95;98.30
67275;DHT22;55463;52.324;5.122;2023-05-07T06:18:01;14.95;98.13
67275;DHT22;55463;52.324;5.122;2023-05-07T06:20:26;14.95;98.17
67275;DHT22;55463;52.324;5.122;2023-05-07T06:22:51;15.01;97.82
67275;DHT22;55463;52.324;5.122;2023-05-07T06:25:17;15.07;97.79
67275;DHT22;55463;52.324;5.122;2023-05-07T06:27:42;15.11;98.10
67275;DHT22;55463;52.324;5.122;2023-05-07T06:30:08;15.18;98.74
67275;DHT22;55463;52.324;5.122;2023-05-07T06:32:33;15.18;98.43
67275;DHT22;55463;52.324;5.122;2023-05-07T06:34:59;15.22;98.33
67275;DHT22;55463;52.324;5.122;2023-05-07T06:37:25;15.27;98.51
67275;DHT22;55463;52.324;5.122;2023-05-07T06:39:53;15.35;97.99
67275;DHT22;55463;52.324;5.122;2023-05-07T06:42:19;15.39;97.99
67275;DHT22;55463;52.324;5.122;2023-05-07T06:44:44;15.43;97.82
67275;DHT22;55463;52.324;5.122;2023-05-07T06:47:09;15.49;97.62
67275;DHT22;55463;52.324;5.122;2023-05-07T06:49:35;15.56;97.87
67275;DHT22;55463;52.324;5.122;2023-05-07T06:52:00;15.55;97.64
67275;DHT22;55463;52.324;5.122;2023-05-07T06:54:25;15.62;97.77
67275;DHT22;55463;52.324;5.122;2023-05-07T06:56:51;15.60;97.57
67275;DHT22;55463;52.324;5.122;2023-05-07T06:59:16;15.60;97.77
67275;DHT22;55463;52.324;5.122;2023-05-07T07:01:42;15.63;97.07
67275;DHT22;55463;52.324;5.122;2023-05-07T07:04:07;15.67;97.23
67275;DHT22;55463;52.324;5.122;2023-05-07T07:06:33;15.65;97.76
67275;DHT22;55463;52.324;5.122;2023-05-07T07:08:59;15.67;96.97
67275;DHT22;55463;52.324;5.122;2023-05-07T07:11:25;15.70;97.38
67275;DHT22;55463;52.324;5.122;2023-05-07T07:13:50;15.76;97.57
67275;DHT22;55463;52.324;5.122;2023-05-07T07:16:16;15.89;97.47
67275;DHT22;55463;52.324;5.122;2023-05-07T07:18:42;15.94;97.19
67275;DHT22;55463;52.324;5.122;2023-05-07T07:21:07;16.00;96.84
67275;DHT22;55463;52.324;5.122;2023-05-07T07:23:33;16.08;97.02
67275;DHT22;55463;52.324;5.122;2023-05-07T07:25:58;16.08;96.42
67275;DHT22;55463;52.324;5.122;2023-05-07T07:28:23;16.20;96.40
67275;DHT22;55463;52.324;5.122;2023-05-07T07:30:49;16.18;96.56
67275;DHT22;55463;52.324;5.122;2023-05-07T07:33:15;16.32;96.71
67275;DHT22;55463;52.324;5.122;2023-05-07T07:35:40;16.44;96.25
67275;DHT22;55463;52.324;5.122;2023-05-07T07:38:05;16.63;97.30
67275;DHT22;55463;52.324;5.122;2023-05-07T07:40:31;16.72;96.11
67275;DHT22;55463;52.324;5.122;2023-05-07T07:42:57;16.76;95.25
67275;DHT22;55463;52.324;5.122;2023-05-07T07:45:22;16.69;95.26
67275;DHT22;55463;52.324;5.122;2023-05-07T07:47:48;16.70;95.22
67275;DHT22;55463;52.324;5.122;2023-05-07T07:50:13;16.73;95.40
67275;DHT22;55463;52.324;5.122;2023-05-07T07:52:39;16.76;94.94
67275;DHT22;55463;52.324;5.122;2023-05-07T07:55:05;16.94;96.09
67275;DHT22;55463;52.324;5.122;2023-05-07T07:57:30;17.25;95.60
67275;DHT22;55463;52.324;5.122;2023-05-07T07:59:56;17.55;94.94
67275;DHT22;55463;52.324;5.122;2023-05-07T08:02:21;17.73;94.32
67275;DHT22;55463;52.324;5.122;2023-05-07T08:04:47;17.82;92.82
67275;DHT22;55463;52.324;5.122;2023-05-07T08:07:12;18.11;93.08
67275;DHT22;55463;52.324;5.122;2023-05-07T08:09:38;18.38;92.94
67275;DHT22;55463;52.324;5.122;2023-05-07T08:12:05;18.72;92.48
67275;DHT22;55463;52.324;5.122;2023-05-07T08:14:30;19.08;91.52
67275;DHT22;55463;52.324;5.122;2023-05-07T08:16:56;19.21;88.98
67275;DHT22;55463;52.324;5.122;2023-05-07T08:19:21;19.11;87.85
67275;DHT22;55463;52.324;5.122;2023-05-07T08:21:48;18.91;88.63
67275;DHT22;55463;52.324;5.122;2023-05-07T08:24:14;18.94;88.66
67275;DHT22;55463;52.324;5.122;2023-05-07T08:26:40;19.06;88.79
67275;DHT22;55463;52.324;5.122;2023-05-07T08:29:05;18.94;87.69
67275;DHT22;55463;52.324;5.122;2023-05-07T08:31:31;19.21;88.22
67275;DHT22;55463;52.324;5.122;2023-05-07T08:33:57;19.25;87.04
67275;DHT22;55463;52.324;5.122;2023-05-07T08:36:23;19.15;86.32
67275;DHT22;55463;52.324;5.122;2023-05-07T08:38:48;19.19;87.34
67275;DHT22;55463;52.324;5.122;2023-05-07T08:41:14;19.10;87.12
67275;DHT22;55463;52.324;5.122;2023-05-07T08:43:41;18.93;87.30
67275;DHT22;55463;52.324;5.122;2023-05-07T08:46:09;18.93;87.97
67275;DHT22;55463;52.324;5.122;2023-05-07T08:48:35;18.98;88.26
67275;DHT22;55463;52.324;5.122;2023-05-07T08:51:01;18.94;87.25
67275;DHT22;55463;52.324;5.122;2023-05-07T08:53:26;19.06;87.60
67275;DHT22;55463;52.324;5.122;2023-05-07T08:55:53;18.90;87.24
67275;DHT22;55463;52.324;5.122;2023-05-07T08:58:18;19.06;87.99
67275;DHT22;55463;52.324;5.122;2023-05-07T09:00:44;18.94;88.21
67275;DHT22;55463;52.324;5.122;2023-05-07T09:03:09;19.01;87.54
67275;DHT22;55463;52.324;5.122;2023-05-07T09:05:38;19.17;87.91
67275;DHT22;55463;52.324;5.122;2023-05-07T09:08:03;19.29;87.11
67275;DHT22;55463;52.324;5.122;2023-05-07T09:10:33;19.51;87.29
67275;DHT22;55463;52.324;5.122;2023-05-07T09:12:58;19.52;87.09
67275;DHT22;55463;52.324;5.122;2023-05-07T09:15:24;19.73;86.67
67275;DHT22;55463;52.324;5.122;2023-05-07T09:17:50;19.84;86.61
67275;DHT22;55463;52.324;5.122;2023-05-07T09:20:16;19.84;85.01
67275;DHT22;55463;52.324;5.122;2023-05-07T09:22:41;19.97;85.25
67275;DHT22;55463;52.324;5.122;2023-05-07T09:25:08;20.08;84.13
67275;DHT22;55463;52.324;5.122;2023-05-07T09:27:34;20.18;85.20
67275;DHT22;55463;52.324;5.122;2023-05-07T09:30:03;20.56;85.17
67275;DHT22;55463;52.324;5.122;2023-05-07T09:32:29;21.08;83.79
67275;DHT22;55463;52.324;5.122;2023-05-07T09:34:55;21.41;81.86
67275;DHT22;55463;52.324;5.122;2023-05-07T09:37:21;21.28;81.04
67275;DHT22;55463;52.324;5.122;2023-05-07T09:39:49;21.24;80.01
67275;DHT22;55463;52.324;5.122;2023-05-07T09:42:15;21.67;82.49
67275;DHT22;55463;52.324;5.122;2023-05-07T09:44:44;21.69;81.32
67275;DHT22;55463;52.324;5.122;2023-05-07T09:47:10;21.65;80.60
67275;DHT22;55463;52.324;5.122;2023-05-07T09:49:39;21.41;79.31
67275;DHT22;55463;52.324;5.122;2023-05-07T09:52:07;21.37;80.66
67275;DHT22;55463;52.324;5.122;2023-05-07T09:54:35;21.72;82.21
67275;DHT22;55463;52.324;5.122;2023-05-07T09:57:04;21.97;79.12
67275;DHT22;55463;52.324;5.122;2023-05-07T09:59:31;22.49;80.17
67275;DHT22;55463;52.324;5.122;2023-05-07T10:01:57;23.03;78.46
67275;DHT22;55463;52.324;5.122;2023-05-07T10:04:25;23.62;78.08
67275;DHT22;55463;52.324;5.122;2023-05-07T10:06:50;23.58;77.20
67275;DHT22;55463;52.324;5.122;2023-05-07T10:09:16;23.86;73.68
67275;DHT22;55463;52.324;5.122;2023-05-07T10:11:42;23.90;73.68
67275;DHT22;55463;52.324;5.122;2023-05-07T10:14:09;24.03;75.15
67275;DHT22;55463;52.324;5.122;2023-05-07T10:16:36;23.80;72.87
67275;DHT22;55463;52.324;5.122;2023-05-07T10:19:03;23.87;74.93
67275;DHT22;55463;52.324;5.122;2023-05-07T10:21:30;23.89;74.34
67275;DHT22;55463;52.324;5.122;2023-05-07T10:24:04;24.29;73.11
67275;DHT22;55463;52.324;5.122;2023-05-07T10:26:32;25.00;74.16
67275;DHT22;55463;52.324;5.122;2023-05-07T10:29:10;24.84;70.96
67275;DHT22;55463;52.324;5.122;2023-05-07T10:31:54;24.65;70.75
67275;DHT22;55463;52.324;5.122;2023-05-07T10:34:24;24.55;72.27
67275;DHT22;55463;52.324;5.122;2023-05-07T10:36:52;24.61;72.85
67275;DHT22;55463;52.324;5.122;2023-05-07T10:39:19;24.84;71.33
67275;DHT22;55463;52.324;5.122;2023-05-07T10:41:44;25.06;69.98
67275;DHT22;55463;52.324;5.122;2023-05-07T10:44:10;25.51;71.02
67275;DHT22;55463;52.324;5.122;2023-05-07T10:46:36;25.07;70.14
67275;DHT22;55463;52.324;5.122;2023-05-07T10:51:34;24.58;71.03
67275;DHT22;55463;52.324;5.122;2023-05-07T10:56:35;24.20;71.29
67275;DHT22;55463;52.324;5.122;2023-05-07T10:59:30;24.07;70.78
67275;DHT22;55463;52.324;5.122;2023-05-07T11:02:03;24.04;71.35
67275;DHT22;55463;52.324;5.122;2023-05-07T11:04:29;23.99;71.13
67275;DHT22;55463;52.324;5.122;2023-05-07T11:09:57;23.96;71.17
67275;DHT22;55463;52.324;5.122;2023-05-07T11:15:08;24.06;70.74
67275;DHT22;55463;52.324;5.122;2023-05-07T11:17:34;24.35;69.71
67275;DHT22;55463;52.324;5.122;2023-05-07T11:20:16;24.62;71.00
67275;DHT22;55463;52.324;5.122;2023-05-07T11:22:42;24.47;68.68
67275;DHT22;55463;52.324;5.122;2023-05-07T11:25:07;24.41;69.59
67275;DHT22;55463;52.324;5.122;2023-05-07T11:27:33;24.29;68.73
67275;DHT22;55463;52.324;5.122;2023-05-07T11:29:59;24.32;68.75
67275;DHT22;55463;52.324;5.122;2023-05-07T11:32:28;24.37;68.74
67275;DHT22;55463;52.324;5.122;2023-05-07T11:34:54;24.25;67.76
67275;DHT22;55463;52.324;5.122;2023-05-07T11:37:21;24.29;68.96
67275;DHT22;55463;52.324;5.122;2023-05-07T11:39:47;24.13;69.27
67275;DHT22;55463;52.324;5.122;2023-05-07T11:42:33;24.32;69.52
67275;DHT22;55463;52.324;5.122;2023-05-07T11:44:59;24.79;69.42
67275;DHT22;55463;52.324;5.122;2023-05-07T11:47:25;24.71;68.39
67275;DHT22;55463;52.324;5.122;2023-05-07T11:49:54;24.79;68.26
67275;DHT22;55463;52.324;5.122;2023-05-07T11:52:24;24.16;68.46
67275;DHT22;55463;52.324;5.122;2023-05-07T11:54:53;24.28;69.36
67275;DHT22;55463;52.324;5.122;2023-05-07T11:57:20;24.59;70.54
67275;DHT22;55463;52.324;5.122;2023-05-07T11:59:46;24.65;69.78
67275;DHT22;55463;52.324;5.122;2023-05-07T12:02:15;25.10;69.52
67275;DHT22;55463;52.324;5.122;2023-05-07T12:04:41;25.21;67.39
67275;DHT22;55463;52.324;5.122;2023-05-07T12:07:11;25.31;68.07
67275;DHT22;55463;52.324;5.122;2023-05-07T12:09:38;25.70;67.44
67275;DHT22;55463;52.324;5.122;2023-05-07T12:12:04;25.62;68.63
67275;DHT22;55463;52.324;5.122;2023-05-07T12:14:29;25.53;66.96
67275;DHT22;55463;52.324;5.122;2023-05-07T12:16:55;25.23;66.57
67275;DHT22;55463;52.324;5.122;2023-05-07T12:19:21;24.93;66.68
67275;DHT22;55463;52.324;5.122;2023-05-07T12:21:47;24.79;66.66
67275;DHT22;55463;52.324;5.122;2023-05-07T12:24:14;24.59;68.32
67275;DHT22;55463;52.324;5.122;2023-05-07T12:26:40;24.62;68.00
67275;DHT22;55463;52.324;5.122;2023-05-07T12:29:06;24.51;67.82
67275;DHT22;55463;52.324;5.122;2023-05-07T12:31:32;24.51;68.12
67275;DHT22;55463;52.324;5.122;2023-05-07T12:33:57;24.22;68.10
67275;DHT22;55463;52.324;5.122;2023-05-07T12:36:23;23.86;67.92
67275;DHT22;55463;52.324;5.122;2023-05-07T12:38:51;23.86;68.16
67275;DHT22;55463;52.324;5.122;2023-05-07T12:41:17;23.73;68.10
67275;DHT22;55463;52.324;5.122;2023-05-07T12:43:44;23.59;68.32
67275;DHT22;55463;52.324;5.122;2023-05-07T12:46:09;23.66;69.12
67275;DHT22;55463;52.324;5.122;2023-05-07T12:48:43;23.63;69.12
67275;DHT22;55463;52.324;5.122;2023-05-07T12:51:09;23.59;67.88
67275;DHT22;55463;52.324;5.122;2023-05-07T12:53:40;23.77;68.09
67275;DHT22;55463;52.324;5.122;2023-05-07T12:56:06;23.86;67.49
67275;DHT22;55463;52.324;5.122;2023-05-07T12:58:35;24.09;68.63
67275;DHT22;55463;52.324;5.122;2023-05-07T13:01:08;24.17;67.92
67275;DHT22;55463;52.324;5.122;2023-05-07T13:03:36;24.44;68.65
67275;DHT22;55463;52.324;5.122;2023-05-07T13:06:07;24.59;67.26
67275;DHT22;55463;52.324;5.122;2023-05-07T13:08:37;24.68;65.83
67275;DHT22;55463;52.324;5.122;2023-05-07T13:11:04;24.77;65.61
67275;DHT22;55463;52.324;5.122;2023-05-07T13:13:31;24.80;63.39
67275;DHT22;55463;52.324;5.122;2023-05-07T13:15:56;25.17;64.30
67275;DHT22;55463;52.324;5.122;2023-05-07T13:18:22;25.69;64.49
67275;DHT22;55463;52.324;5.122;2023-05-07T13:20:47;26.27;65.23
67275;DHT22;55463;52.324;5.122;2023-05-07T13:23:12;26.30;61.37
67275;DHT22;55463;52.324;5.122;2023-05-07T13:25:38;26.38;61.66
67275;DHT22;55463;52.324;5.122;2023-05-07T13:28:03;26.37;60.81
67275;DHT22;55463;52.324;5.122;2023-05-07T13:30:30;26.47;62.84
67275;DHT22;55463;52.324;5.122;2023-05-07T13:32:56;26.40;62.75
67275;DHT22;55463;52.324;5.122;2023-05-07T13:35:21;26.33;62.71
67275;DHT22;55463;52.324;5.122;2023-05-07T13:37:47;25.99;61.85
67275;DHT22;55463;52.324;5.122;2023-05-07T13:40:14;25.62;60.93
67275;DHT22;55463;52.324;5.122;2023-05-07T13:42:40;24.82;63.31
67275;DHT22;55463;52.324;5.122;2023-05-07T13:45:06;24.59;63.94
67275;DHT22;55463;52.324;5.122;2023-05-07T13:47:32;24.38;65.38
67275;DHT22;55463;52.324;5.122;2023-05-07T13:49:58;24.24;66.80
67275;DHT22;55463;52.324;5.122;2023-05-07T13:52:23;24.16;66.80
67275;DHT22;55463;52.324;5.122;2023-05-07T13:54:48;24.04;67.20
67275;DHT22;55463;52.324;5.122;2023-05-07T13:57:14;23.83;65.51
67275;DHT22;55463;52.324;5.122;2023-05-07T13:59:40;23.77;67.10
67275;DHT22;55463;52.324;5.122;2023-05-07T14:02:06;23.61;66.13
67275;DHT22;55463;52.324;5.122;2023-05-07T14:04:34;23.58;66.87
67275;DHT22;55463;52.324;5.122;2023-05-07T14:06:59;23.39;68.14
67275;DHT22;55463;52.324;5.122;2023-05-07T14:09:25;23.25;68.33
67275;DHT22;55463;52.324;5.122;2023-05-07T14:11:50;22.97;68.55
67275;DHT22;55463;52.324;5.122;2023-05-07T14:14:19;22.84;68.96
67275;DHT22;55463;52.324;5.122;2023-05-07T14:16:45;22.67;68.95
67275;DHT22;55463;52.324;5.122;2023-05-07T14:19:11;22.72;69.01
67275;DHT22;55463;52.324;5.122;2023-05-07T14:21:36;22.67;69.59
67275;DHT22;55463;52.324;5.122;2023-05-07T14:24:02;22.55;68.97
67275;DHT22;55463;52.324;5.122;2023-05-07T14:26:28;22.42;69.68
67275;DHT22;55463;52.324;5.122;2023-05-07T14:28:54;22.37;70.25
67275;DHT22;55463;52.324;5.122;2023-05-07T14:31:23;22.20;69.88
67275;DHT22;55463;52.324;5.122;2023-05-07T14:33:49;22.21;71.23
67275;DHT22;55463;52.324;5.122;2023-05-07T14:36:18;22.10;72.06
67275;DHT22;55463;52.324;5.122;2023-05-07T14:38:46;21.93;72.42
67275;DHT22;55463;52.324;5.122;2023-05-07T14:41:12;21.79;73.12
67275;DHT22;55463;52.324;5.122;2023-05-07T14:43:37;21.85;73.17
67275;DHT22;55463;52.324;5.122;2023-05-07T14:46:02;21.73;73.27
67275;DHT22;55463;52.324;5.122;2023-05-07T14:48:28;21.55;74.84
67275;DHT22;55463;52.324;5.122;2023-05-07T14:50:53;21.34;76.01
67275;DHT22;55463;52.324;5.122;2023-05-07T14:53:19;20.97;76.81
67275;DHT22;55463;52.324;5.122;2023-05-07T14:55:45;20.81;78.09
67275;DHT22;55463;52.324;5.122;2023-05-07T14:58:11;20.46;78.38
67275;DHT22;55463;52.324;5.122;2023-05-07T15:00:36;20.42;79.01
67275;DHT22;55463;52.324;5.122;2023-05-07T15:03:07;20.29;79.10
67275;DHT22;55463;52.324;5.122;2023-05-07T15:05:33;20.14;79.17
67275;DHT22;55463;52.324;5.122;2023-05-07T15:07:59;19.97;77.79
67275;DHT22;55463;52.324;5.122;2023-05-07T15:10:24;19.77;79.32
67275;DHT22;55463;52.324;5.122;2023-05-07T15:12:50;19.49;84.34
67275;DHT22;55463;52.324;5.122;2023-05-07T15:15:15;19.10;85.24
67275;DHT22;55463;52.324;5.122;2023-05-07T15:17:41;19.04;86.14
67275;DHT22;55463;52.324;5.122;2023-05-07T15:20:06;18.86;85.59
67275;DHT22;55463;52.324;5.122;2023-05-07T15:22:32;18.76;87.00
67275;DHT22;55463;52.324;5.122;2023-05-07T15:24:57;18.56;87.09
67275;DHT22;55463;52.324;5.122;2023-05-07T15:27:24;18.36;87.53
67275;DHT22;55463;52.324;5.122;2023-05-07T15:29:49;18.28;88.29
67275;DHT22;55463;52.324;5.122;2023-05-07T15:32:14;18.14;88.55
67275;DHT22;55463;52.324;5.122;2023-05-07T15:34:40;17.94;88.14